Time;durP1;ratioP1;P1;durP2;ratioP2;P2;SDS_P1;SDS_P2;PMS_P1;PMS_P2;Temp;Humidity;BMP_temperature;BMP_pressure;BME280_temperature;BME280_humidity;BME280_pressure;Samples;Min_cycle;Max_cycle;Signal;HPM_P1;HPM_P2
2021/04/29 04:02:47;;;;;;;20.77;18.38;;;8.40;99.90;;;;;;4915224;29;20254;-72
2021/04/29 04:05:14;;;;;;;25.58;19.42;;;8.50;99.90;;;;;;4917178;29;20314;-70
2021/04/29 04:07:40;;;;;;;21.65;19.00;;;8.50;99.90;;;;;;4917314;29;20218;-72
2021/04/29 04:10:07;;;;;;;24.10;18.98;;;8.40;99.90;;;;;;4916946;29;20273;-72
2021/04/29 04:12:34;;;;;;;26.50;20.90;;;8.30;99.90;;;;;;4899940;29;20252;-73
2021/04/29 04:15:00;;;;;;;24.13;20.23;;;8.30;99.90;;;;;;4899369;29;20211;-73
2021/04/29 04:17:26;;;;;;;20.52;18.20;;;8.30;99.90;;;;;;4900277;29;20222;-73
2021/04/29 04:19:53;;;;;;;23.83;19.75;;;8.30;99.90;;;;;;4899246;29;20218;-72
2021/04/29 04:22:20;;;;;;;23.30;18.83;;;8.30;99.90;;;;;;4899136;29;20235;-73
2021/04/29 04:24:46;;;;;;;24.55;19.70;;;8.40;99.90;;;;;;4899337;29;20646;-72
2021/04/29 04:27:12;;;;;;;23.90;20.40;;;8.40;99.90;;;;;;4899458;29;20305;-72
2021/04/29 04:29:38;;;;;;;24.80;20.60;;;8.40;99.90;;;;;;4897648;29;20226;-70
2021/04/29 04:32:04;;;;;;;26.13;21.60;;;8.40;99.90;;;;;;4897735;29;20232;-70
2021/04/29 04:34:31;;;;;;;24.88;20.63;;;8.40;99.90;;;;;;4897873;29;20211;-70
2021/04/29 04:36:58;;;;;;;25.58;21.98;;;8.40;99.90;;;;;;4897993;29;20219;-69
2021/04/29 04:39:24;;;;;;;26.63;21.00;;;8.40;99.90;;;;;;4897936;29;20590;-69
2021/04/29 04:41:51;;;;;;;31.45;23.60;;;8.40;99.90;;;;;;4897540;29;20239;-70
2021/04/29 04:44:17;;;;;;;28.50;22.58;;;8.40;99.90;;;;;;4897050;29;20238;-70
2021/04/29 04:46:44;;;;;;;29.13;21.58;;;8.50;99.90;;;;;;4897395;29;20218;-70
2021/04/29 04:49:10;;;;;;;30.25;23.67;;;8.50;99.90;;;;;;4897843;29;20223;-70
2021/04/29 04:51:36;;;;;;;31.38;22.83;;;8.50;99.90;;;;;;4898240;29;20371;-70
2021/04/29 04:54:04;;;;;;;28.40;22.30;;;8.50;99.90;;;;;;4901377;29;20263;-69
2021/04/29 04:56:30;;;;;;;31.85;24.50;;;8.50;99.90;;;;;;4898355;29;20250;-70
2021/04/29 04:58:56;;;;;;;23.55;20.35;;;8.40;99.90;;;;;;4897676;29;20214;-69
2021/04/29 05:01:22;;;;;;;27.30;22.67;;;8.40;99.90;;;;;;4896923;29;20691;-69
2021/04/29 05:03:49;;;;;;;26.02;22.23;;;8.40;99.90;;;;;;4897386;29;20223;-69
2021/04/29 05:06:15;;;;;;;25.40;20.45;;;8.30;99.90;;;;;;4908890;29;20212;-72
2021/04/29 05:08:42;;;;;;;30.83;22.52;;;8.30;99.90;;;;;;4903808;29;20218;-72
2021/04/29 05:11:09;;;;;;;27.60;23.60;;;8.40;99.90;;;;;;4898193;29;20286;-72
2021/04/29 05:13:35;;;;;;;26.35;21.60;;;8.30;99.90;;;;;;4898197;29;20313;-73
2021/04/29 05:16:01;;;;;;;26.83;21.75;;;8.30;99.90;;;;;;4897460;29;20207;-70
2021/04/29 05:18:27;;;;;;;26.17;22.23;;;8.30;99.90;;;;;;4897029;29;20633;-70
2021/04/29 05:20:54;;;;;;;30.00;23.50;;;8.30;99.90;;;;;;4897358;29;20231;-70
2021/04/29 05:23:20;;;;;;;28.58;23.35;;;8.30;99.90;;;;;;4897118;29;20219;-70
2021/04/29 05:25:46;;;;;;;28.90;24.60;;;8.30;99.90;;;;;;4897152;29;20211;-71
2021/04/29 05:28:13;;;;;;;27.05;23.08;;;8.40;99.90;;;;;;4896974;29;20216;-71
2021/04/29 05:30:40;;;;;;;28.95;23.08;;;8.40;99.90;;;;;;4896733;29;20239;-70
2021/04/29 05:33:06;;;;;;;29.20;24.38;;;8.30;99.90;;;;;;4896906;29;20591;-70
2021/04/29 05:35:33;;;;;;;26.88;23.65;;;8.40;99.90;;;;;;4896827;29;20231;-70
2021/04/29 05:38:00;;;;;;;28.35;21.35;;;8.30;99.90;;;;;;4896923;29;20211;-70
2021/04/29 05:40:26;;;;;;;32.58;23.73;;;8.30;99.90;;;;;;4896566;29;20231;-70
2021/04/29 05:42:52;;;;;;;31.75;23.15;;;8.30;99.90;;;;;;4897073;29;20204;-71
2021/04/29 05:45:19;;;;;;;29.30;22.77;;;8.30;99.90;;;;;;4896196;29;20218;-70
2021/04/29 05:47:45;;;;;;;27.80;21.40;;;8.30;99.90;;;;;;4897375;29;20271;-70
2021/04/29 05:50:12;;;;;;;30.42;22.73;;;8.40;99.90;;;;;;4896902;29;20211;-70
2021/04/29 05:52:39;;;;;;;31.23;24.55;;;8.40;99.90;;;;;;4898321;29;20582;-72
2021/04/29 05:55:07;;;;;;;61.75;27.83;;;8.40;99.90;;;;;;4898381;29;20252;-72
2021/04/29 05:57:33;;;;;;;44.63;28.33;;;8.40;99.90;;;;;;4898189;29;20215;-73
2021/04/29 05:59:59;;;;;;;36.08;26.83;;;8.40;99.90;;;;;;4897283;29;20215;-73
2021/04/29 06:02:26;;;;;;;35.92;27.08;;;8.50;99.90;;;;;;4897373;29;20235;-73
2021/04/29 06:04:52;;;;;;;33.30;26.88;;;8.50;99.90;;;;;;4898009;29;20222;-73
2021/04/29 06:07:18;;;;;;;32.97;27.17;;;8.50;99.90;;;;;;4897808;29;20278;-73
2021/04/29 06:09:45;;;;;;;49.72;31.30;;;8.50;99.90;;;;;;4897192;29;20214;-73
2021/04/29 06:12:11;;;;;;;39.83;28.17;;;8.50;99.90;;;;;;4897340;29;20336;-72
2021/04/29 06:14:37;;;;;;;59.13;31.23;;;8.60;99.90;;;;;;4897848;29;20688;-72
2021/04/29 06:17:04;;;;;;;36.85;27.70;;;8.60;99.90;;;;;;4899171;29;20582;-74
2021/04/29 06:19:31;;;;;;;30.85;25.77;;;8.50;99.90;;;;;;4898811;29;20564;-73
2021/04/29 06:21:57;;;;;;;33.75;25.08;;;8.50;99.90;;;;;;4897906;29;20235;-73
2021/04/29 06:24:23;;;;;;;35.63;27.20;;;8.60;99.90;;;;;;4899795;29;20211;-73
2021/04/29 06:26:49;;;;;;;37.30;27.25;;;8.60;99.90;;;;;;4900805;29;20707;-74
2021/04/29 06:29:15;;;;;;;34.10;26.83;;;8.60;99.90;;;;;;4900523;29;20211;-73
2021/04/29 06:31:44;;;;;;;32.90;26.58;;;8.60;99.90;;;;;;4903163;29;20231;-73
2021/04/29 06:34:10;;;;;;;33.30;27.70;;;8.70;99.90;;;;;;4902935;29;20566;-73
2021/04/29 06:36:37;;;;;;;28.65;24.48;;;8.70;99.90;;;;;;4903569;29;20222;-73
2021/04/29 06:39:04;;;;;;;27.95;23.27;;;8.70;99.90;;;;;;4902722;29;20653;-74
2021/04/29 06:41:31;;;;;;;28.52;24.63;;;8.60;99.90;;;;;;4901830;29;20544;-74
2021/04/29 06:43:57;;;;;;;34.92;24.85;;;8.60;99.90;;;;;;4901228;29;20207;-74
2021/04/29 06:46:23;;;;;;;35.88;24.95;;;8.60;99.90;;;;;;4901788;29;20215;-73
2021/04/29 06:48:49;;;;;;;28.90;24.55;;;8.60;99.90;;;;;;4901859;29;20219;-73
2021/04/29 06:51:15;;;;;;;29.63;24.65;;;8.60;99.90;;;;;;4901043;29;20231;-73
2021/04/29 06:53:42;;;;;;;32.45;25.50;;;8.60;99.90;;;;;;4900693;29;20703;-71
2021/04/29 06:56:08;;;;;;;32.13;25.10;;;8.60;99.90;;;;;;4901188;29;20215;-73
2021/04/29 06:58:35;;;;;;;35.80;24.98;;;8.70;99.90;;;;;;4901884;29;20211;-74
2021/04/29 07:01:01;;;;;;;30.33;24.63;;;8.70;99.90;;;;;;4902749;29;20235;-74
2021/04/29 07:03:27;;;;;;;33.90;24.50;;;8.60;99.90;;;;;;4903240;29;20211;-73
2021/04/29 07:05:54;;;;;;;34.38;24.83;;;8.70;99.90;;;;;;4902494;29;20215;-74
2021/04/29 07:08:20;;;;;;;30.92;24.23;;;8.60;99.90;;;;;;4900693;29;20298;-72
2021/04/29 07:10:49;;;;;;;31.88;21.92;;;8.60;99.90;;;;;;4899325;29;20264;-72
2021/04/29 07:13:15;;;;;;;28.52;25.48;;;8.50;99.90;;;;;;4898870;29;20334;-72
2021/04/29 07:15:41;;;;;;;32.00;24.35;;;8.50;99.90;;;;;;4899222;29;20207;-73
2021/04/29 07:18:09;;;;;;;31.05;26.17;;;8.60;99.90;;;;;;4899332;29;20214;-71
2021/04/29 07:20:36;;;;;;;33.90;26.98;;;8.60;99.90;;;;;;4899330;29;20570;-71
2021/04/29 07:23:03;;;;;;;33.22;25.80;;;8.60;99.90;;;;;;4899079;29;20343;-70
2021/04/29 07:25:29;;;;;;;36.42;28.08;;;8.70;99.90;;;;;;4899330;29;20291;-72
2021/04/29 07:27:56;;;;;;;35.45;28.05;;;8.70;99.90;;;;;;4899267;29;20208;-72
2021/04/29 07:30:22;;;;;;;39.70;28.73;;;8.70;99.90;;;;;;4898617;29;20207;-72
2021/04/29 07:32:49;;;;;;;32.92;25.88;;;8.80;99.90;;;;;;4898905;29;20766;-72
2021/04/29 07:35:15;;;;;;;35.70;26.15;;;8.80;99.90;;;;;;4899066;29;20652;-72
2021/04/29 07:37:41;;;;;;;34.83;26.98;;;8.80;99.90;;;;;;4898909;29;20717;-72
2021/04/29 07:40:09;;;;;;;35.90;25.02;;;8.80;99.90;;;;;;4898807;29;20279;-72
2021/04/29 07:42:35;;;;;;;33.15;26.70;;;8.90;99.90;;;;;;4898541;29;20211;-72
2021/04/29 07:45:03;;;;;;;33.53;26.55;;;8.90;99.90;;;;;;4898067;29;20211;-72
2021/04/29 07:47:29;;;;;;;36.22;27.27;;;8.90;99.90;;;;;;4898633;29;20671;-72
2021/04/29 07:49:55;;;;;;;33.15;26.00;;;8.90;99.90;;;;;;4898500;29;20366;-72
2021/04/29 07:52:21;;;;;;;30.63;25.48;;;8.90;99.90;;;;;;4898654;29;20235;-72
2021/04/29 07:54:47;;;;;;;35.40;26.65;;;8.80;99.90;;;;;;4898795;29;20314;-72
2021/04/29 07:57:13;;;;;;;33.28;26.80;;;8.90;99.90;;;;;;4898668;29;20211;-71
2021/04/29 07:59:39;;;;;;;29.15;23.92;;;8.90;99.90;;;;;;4897540;29;20276;-71
2021/04/29 08:02:07;;;;;;;33.33;25.90;;;8.90;99.90;;;;;;4898278;29;20543;-71
2021/04/29 08:04:33;;;;;;;31.65;24.90;;;8.90;99.90;;;;;;4898783;29;20218;-72
2021/04/29 08:06:59;;;;;;;27.13;24.02;;;8.90;99.90;;;;;;4898390;29;20690;-71
2021/04/29 08:09:26;;;;;;;30.08;25.88;;;8.90;99.90;;;;;;4899038;29;20219;-72
2021/04/29 08:11:52;;;;;;;35.08;26.58;;;8.90;99.90;;;;;;4898762;29;20246;-72
2021/04/29 08:14:18;;;;;;;35.17;26.65;;;9.00;99.90;;;;;;4897662;29;20604;-72
2021/04/29 08:16:45;;;;;;;31.75;25.85;;;9.00;99.90;;;;;;4897662;29;20286;-70
2021/04/29 08:19:12;;;;;;;26.35;23.55;;;9.10;99.90;;;;;;4898100;29;20215;-70
2021/04/29 08:21:38;;;;;;;32.60;25.48;;;9.00;99.90;;;;;;4898083;29;20246;-71
2021/04/29 08:24:05;;;;;;;30.27;24.05;;;9.00;99.90;;;;;;4898070;29;20207;-70
2021/04/29 08:26:33;;;;;;;30.58;25.27;;;9.10;99.90;;;;;;4898158;29;20305;-70
2021/04/29 08:28:59;;;;;;;31.70;25.60;;;9.00;99.90;;;;;;4897597;29;20246;-71
2021/04/29 08:31:25;;;;;;;28.60;23.67;;;9.00;99.90;;;;;;4897607;29;20239;-70
2021/04/29 08:33:52;;;;;;;31.88;26.20;;;9.00;99.90;;;;;;4897619;29;20258;-70
2021/04/29 08:36:19;;;;;;;29.05;22.73;;;9.00;99.90;;;;;;4897896;29;20258;-74
2021/04/29 08:38:46;;;;;;;30.88;24.75;;;9.00;99.90;;;;;;4899516;29;20298;-74
2021/04/29 08:41:12;;;;;;;32.97;24.85;;;9.00;99.90;;;;;;4899365;29;20231;-73
2021/04/29 08:43:38;;;;;;;28.85;25.20;;;9.00;99.90;;;;;;4898415;29;20567;-73
2021/04/29 08:46:06;;;;;;;29.88;24.27;;;9.00;99.90;;;;;;4899143;29;20238;-74
2021/04/29 08:48:33;;;;;;;33.55;25.80;;;9.00;99.90;;;;;;4899112;29;20577;-74
2021/04/29 08:50:59;;;;;;;32.85;26.02;;;9.00;99.90;;;;;;4898267;29;20242;-73
2021/04/29 08:53:26;;;;;;;30.55;25.67;;;9.00;99.90;;;;;;4897536;29;20261;-74
2021/04/29 08:55:52;;;;;;;29.48;24.65;;;9.10;99.90;;;;;;4898735;29;20211;-74
2021/04/29 08:58:19;;;;;;;31.13;25.40;;;9.10;99.90;;;;;;4898693;29;20637;-73
2021/04/29 09:00:48;;;;;;;34.22;25.65;;;9.10;99.90;;;;;;4898768;29;20270;-74
2021/04/29 09:03:14;;;;;;;31.45;25.83;;;9.10;99.90;;;;;;4898803;29;20211;-73
2021/04/29 09:05:43;;;;;;;34.78;26.35;;;9.10;99.90;;;;;;4898614;29;20241;-73
2021/04/29 09:08:09;;;;;;;30.67;24.38;;;9.10;99.90;;;;;;4898855;29;20637;-74
2021/04/29 09:10:38;;;;;;;34.60;26.00;;;9.10;99.90;;;;;;4898688;29;20223;-73
2021/04/29 09:13:14;;;;;;;28.20;23.95;;;9.00;99.90;;;;;;4896948;29;20325;-71
2021/04/29 09:15:40;;;;;;;32.13;26.02;;;9.00;99.90;;;;;;4897164;29;20215;-71
2021/04/29 09:18:09;;;;;;;30.33;24.67;;;9.00;99.90;;;;;;4897269;29;20218;-71
2021/04/29 09:20:36;;;;;;;33.10;25.75;;;9.00;99.90;;;;;;4897021;29;20593;-71
2021/04/29 09:23:05;;;;;;;36.60;26.77;;;9.00;99.90;;;;;;4896954;29;20222;-71
2021/04/29 09:25:32;;;;;;;30.85;25.65;;;9.00;99.90;;;;;;4896936;29;20747;-71
2021/04/29 09:27:59;;;;;;;35.78;27.35;;;9.00;99.90;;;;;;4896966;29;20223;-72
2021/04/29 09:30:27;;;;;;;30.95;24.42;;;9.00;99.90;;;;;;4896627;29;20226;-69
2021/04/29 09:32:58;;;;;;;34.78;27.55;;;8.90;99.90;;;;;;4896935;29;20222;-72
2021/04/29 09:35:25;;;;;;;32.92;27.02;;;9.00;99.90;;;;;;4897039;29;20244;-69
2021/04/29 09:37:51;;;;;;;33.95;27.83;;;8.90;99.90;;;;;;4897111;29;20257;-70
2021/04/29 09:40:22;;;;;;;33.58;25.55;;;8.90;99.90;;;;;;4897209;29;20215;-73
2021/04/29 09:42:50;;;;;;;35.42;26.42;;;9.00;99.90;;;;;;4897901;29;20207;-73
2021/04/29 09:45:25;;;;;;;36.63;28.58;;;8.90;99.90;;;;;;4896464;29;20581;-73
2021/04/29 09:48:00;;;;;;;41.28;28.52;;;9.00;99.90;;;;;;4897843;29;20215;-73
2021/04/29 09:50:28;;;;;;;34.67;26.77;;;9.00;99.90;;;;;;4897104;29;20313;-74
2021/04/29 09:53:00;;;;;;;33.58;25.05;;;9.00;99.90;;;;;;4897141;29;20215;-72
2021/04/29 09:55:27;;;;;;;35.30;26.40;;;8.90;99.90;;;;;;4897278;29;20258;-73
2021/04/29 09:58:15;;;;;;;33.80;27.42;;;8.90;99.90;;;;;;4897625;29;20302;-72
2021/04/29 10:00:43;;;;;;;31.77;26.45;;;8.80;99.90;;;;;;4897137;29;20729;-72
2021/04/29 10:03:10;;;;;;;35.40;26.83;;;8.80;99.90;;;;;;4897847;29;20222;-72
2021/04/29 10:05:40;;;;;;;31.88;26.38;;;8.80;99.90;;;;;;4901077;29;20684;-72
2021/04/29 10:08:08;;;;;;;37.90;27.98;;;8.80;99.90;;;;;;4901429;29;20218;-72
2021/04/29 10:10:36;;;;;;;36.85;29.33;;;8.80;99.90;;;;;;4901436;29;20239;-72
2021/04/29 10:13:07;;;;;;;30.13;25.25;;;8.80;99.90;;;;;;4904644;29;20226;-72
2021/04/29 10:15:35;;;;;;;35.20;27.92;;;8.90;99.90;;;;;;4904737;29;20208;-72
2021/04/29 10:18:02;;;;;;;38.00;29.17;;;8.90;99.90;;;;;;4905927;29;20313;-72
2021/04/29 10:20:30;;;;;;;38.60;28.48;;;9.00;99.90;;;;;;4904938;29;20231;-72
2021/04/29 10:22:57;;;;;;;39.42;28.95;;;9.10;99.90;;;;;;4903361;29;20208;-72
2021/04/29 10:25:28;;;;;;;32.83;27.52;;;9.10;99.90;;;;;;4902089;29;20222;-73
2021/04/29 10:27:56;;;;;;;33.90;28.35;;;9.10;99.90;;;;;;4901096;29;20211;-72
2021/04/29 10:30:31;;;;;;;35.97;28.52;;;9.10;99.90;;;;;;4900704;29;20234;-72
2021/04/29 10:32:57;;;;;;;38.95;29.55;;;9.10;99.90;;;;;;4901291;29;20586;-72
2021/04/29 10:35:27;;;;;;;36.95;27.88;;;9.20;99.90;;;;;;4900722;29;20226;-73
2021/04/29 10:37:58;;;;;;;34.20;28.92;;;9.20;99.90;;;;;;4901246;29;20207;-73
2021/04/29 10:40:32;;;;;;;31.42;25.48;;;9.10;99.90;;;;;;4902337;29;20587;-71
2021/04/29 10:42:58;;;;;;;31.55;25.83;;;9.10;99.90;;;;;;4902131;29;20692;-71
2021/04/29 10:45:25;;;;;;;26.75;22.02;;;9.00;99.90;;;;;;4902081;29;20215;-72
2021/04/29 10:48:03;;;;;;;30.25;23.48;;;9.00;99.90;;;;;;4902244;29;20223;-72
2021/04/29 10:50:42;;;;;;;28.20;23.77;;;9.00;99.90;;;;;;4900521;29;20234;-72
2021/04/29 10:53:08;;;;;;;28.63;23.65;;;9.10;99.90;;;;;;4900346;29;20227;-72
2021/04/29 10:55:36;;;;;;;30.42;25.65;;;9.20;99.90;;;;;;4900762;29;20556;-72
2021/04/29 10:58:04;;;;;;;32.45;26.92;;;9.20;99.90;;;;;;4907911;29;20231;-72
2021/04/29 11:00:32;;;;;;;30.83;24.58;;;9.30;99.90;;;;;;4912283;29;20236;-73
2021/04/29 11:02:59;;;;;;;28.73;24.58;;;9.40;99.90;;;;;;4913825;29;20243;-73
2021/04/29 11:05:27;;;;;;;28.45;23.92;;;9.50;99.90;;;;;;4907330;29;20247;-73
2021/04/29 11:07:54;;;;;;;28.98;24.60;;;9.60;99.90;;;;;;4906615;29;20589;-73
2021/04/29 11:10:25;;;;;;;28.38;23.55;;;9.70;99.90;;;;;;4904771;29;20306;-72
2021/04/29 11:12:54;;;;;;;24.55;21.90;;;9.70;99.90;;;;;;4903257;29;20218;-73
2021/04/29 11:15:23;;;;;;;23.38;21.00;;;9.60;99.90;;;;;;4900811;29;20248;-73
2021/04/29 11:18:00;;;;;;;26.58;22.27;;;9.60;99.90;;;;;;4899539;29;20219;-73
2021/04/29 11:20:27;;;;;;;26.30;21.67;;;9.50;99.90;;;;;;4900152;29;20326;-74
2021/04/29 11:22:56;;;;;;;25.77;23.05;;;9.60;99.90;;;;;;4899853;29;20212;-72
2021/04/29 11:25:22;;;;;;;26.08;22.00;;;9.50;99.90;;;;;;4899622;29;20212;-73
2021/04/29 11:27:54;;;;;;;26.15;22.83;;;9.50;99.90;;;;;;4900114;29;20208;-74
2021/04/29 11:30:22;;;;;;;24.92;22.08;;;9.40;99.90;;;;;;4898495;29;20215;-73
2021/04/29 11:32:55;;;;;;;26.85;22.98;;;9.50;99.90;;;;;;4899482;29;20211;-74
2021/04/29 11:35:23;;;;;;;27.70;23.25;;;9.50;99.90;;;;;;4898689;29;20211;-69
2021/04/29 11:37:49;;;;;;;30.17;23.23;;;9.60;99.90;;;;;;4898977;29;20215;-69
2021/04/29 11:40:17;;;;;;;27.48;24.55;;;9.70;99.90;;;;;;4898568;29;20215;-71
2021/04/29 11:42:49;;;;;;;29.52;24.45;;;9.80;99.90;;;;;;4898359;29;20572;-71
2021/04/29 11:45:18;;;;;;;27.85;21.58;;;9.90;99.90;;;;;;4897971;29;20302;-71
2021/04/29 11:47:55;;;;;;;27.33;23.63;;;9.80;99.90;;;;;;4898663;29;20211;-71
2021/04/29 11:50:22;;;;;;;30.83;23.30;;;9.70;99.90;;;;;;4898359;29;20215;-71
2021/04/29 11:52:49;;;;;;;27.20;23.90;;;9.80;99.90;;;;;;4898341;29;20214;-70
2021/04/29 11:55:24;;;;;;;28.67;23.63;;;9.90;99.90;;;;;;4898359;29;20590;-70
2021/04/29 11:57:51;;;;;;;28.55;23.58;;;9.90;99.90;;;;;;4898328;29;20214;-71
2021/04/29 12:00:18;;;;;;;30.60;26.10;;;10.00;99.90;;;;;;4897363;29;20222;-70
2021/04/29 12:02:44;;;;;;;23.88;21.00;;;10.10;99.90;;;;;;4897945;29;20336;-71
2021/04/29 12:05:11;;;;;;;28.92;24.20;;;10.10;99.90;;;;;;4898156;29;20215;-71
2021/04/29 12:07:41;;;;;;;26.13;22.30;;;10.00;99.90;;;;;;4898326;29;20230;-71
2021/04/29 12:10:08;;;;;;;30.60;25.90;;;10.10;99.90;;;;;;4898267;29;20218;-71
2021/04/29 12:12:35;;;;;;;27.73;23.52;;;10.20;99.90;;;;;;4898034;29;20226;-71
2021/04/29 12:15:01;;;;;;;28.45;24.63;;;10.20;99.90;;;;;;4897377;29;20605;-72
2021/04/29 12:17:27;;;;;;;25.83;22.63;;;10.30;99.90;;;;;;4898247;29;20207;-73
2021/04/29 12:19:55;;;;;;;28.65;25.10;;;10.40;99.90;;;;;;4898064;29;20318;-72
2021/04/29 12:22:23;;;;;;;26.17;22.58;;;10.50;99.90;;;;;;4897807;29;20242;-72
2021/04/29 12:24:50;;;;;;;26.33;23.27;;;10.50;99.90;;;;;;4898050;29;20215;-71
2021/04/29 12:27:18;;;;;;;23.35;20.30;;;10.60;99.90;;;;;;4897397;29;20234;-72
2021/04/29 12:29:47;;;;;;;26.15;22.80;;;10.60;99.90;;;;;;4896719;29;20308;-72
2021/04/29 12:32:14;;;;;;;22.58;20.33;;;10.80;99.90;;;;;;4898102;29;20239;-70
2021/04/29 12:34:45;;;;;;;22.98;20.67;;;10.90;99.90;;;;;;4897438;29;20235;-73
2021/04/29 12:37:12;;;;;;;22.15;19.95;;;10.90;99.90;;;;;;4897874;29;20215;-72
2021/04/29 12:39:40;;;;;;;23.40;21.10;;;11.00;99.90;;;;;;4897938;29;20211;-71
2021/04/29 12:42:09;;;;;;;24.20;21.70;;;11.10;99.90;;;;;;4897645;29;20306;-72
2021/04/29 12:44:38;;;;;;;22.55;20.25;;;11.20;99.90;;;;;;4896989;29;20293;-72
2021/04/29 12:47:05;;;;;;;20.80;18.75;;;11.30;99.90;;;;;;4897535;29;20306;-69
2021/04/29 12:49:31;;;;;;;20.92;18.90;;;11.40;99.90;;;;;;4897576;29;20271;-71
2021/04/29 12:52:09;;;;;;;20.00;18.10;;;11.50;99.90;;;;;;4897504;29;20629;-72
2021/04/29 12:54:35;;;;;;;20.90;18.85;;;11.50;99.90;;;;;;4896924;29;20238;-73
2021/04/29 12:57:03;;;;;;;20.33;18.33;;;11.50;99.90;;;;;;4897462;29;20610;-72
2021/04/29 12:59:29;;;;;;;20.35;18.35;;;11.60;99.90;;;;;;4896808;29;20215;-71
2021/04/29 13:02:06;;;;;;;18.30;16.70;;;11.60;99.90;;;;;;4896681;29;20243;-71
2021/04/29 13:04:34;;;;;;;19.45;17.55;;;11.60;99.90;;;;;;4897364;29;20206;-72
2021/04/29 13:07:03;;;;;;;20.73;18.60;;;11.60;99.90;;;;;;4896829;29;20223;-71
2021/04/29 13:09:33;;;;;;;21.42;19.42;;;11.60;99.90;;;;;;4897158;29;20211;-71
2021/04/29 13:12:11;;;;;;;20.48;18.58;;;11.60;99.90;;;;;;4896767;29;20231;-72
2021/04/29 13:14:40;;;;;;;19.65;17.73;;;11.60;99.90;;;;;;4895957;29;20749;-72
2021/04/29 13:17:12;;;;;;;19.63;17.73;;;11.70;99.90;;;;;;4896971;29;20314;-70
2021/04/29 13:19:41;;;;;;;20.38;18.00;;;11.60;99.90;;;;;;4896978;29;20595;-70
2021/04/29 13:22:07;;;;;;;21.63;19.35;;;11.50;99.90;;;;;;4896771;29;20691;-70
2021/04/29 13:24:35;;;;;;;20.58;18.48;;;11.40;99.90;;;;;;4897034;29;20255;-70
2021/04/29 13:27:02;;;;;;;19.50;17.45;;;11.60;99.90;;;;;;4897230;29;20652;-70
2021/04/29 13:29:29;;;;;;;19.42;17.73;;;11.80;99.90;;;;;;4896844;29;20218;-70
2021/04/29 13:31:56;;;;;;;18.00;16.20;;;12.00;99.90;;;;;;4896749;29;20242;-70
2021/04/29 13:34:23;;;;;;;17.85;16.15;;;12.10;99.90;;;;;;4896782;29;20238;-70
2021/04/29 13:36:50;;;;;;;17.77;16.23;;;12.20;99.90;;;;;;4896713;29;20723;-70
2021/04/29 13:39:16;;;;;;;17.00;15.50;;;12.30;99.90;;;;;;4898101;29;20211;-70
2021/04/29 13:41:44;;;;;;;16.33;15.00;;;12.50;99.90;;;;;;4900509;29;20235;-71
2021/04/29 13:44:10;;;;;;;16.90;15.40;;;12.60;99.90;;;;;;4900341;29;20467;-70
2021/04/29 13:46:37;;;;;;;15.83;14.50;;;12.60;99.90;;;;;;4900398;29;20467;-70
2021/04/29 13:49:03;;;;;;;17.43;15.70;;;12.70;99.90;;;;;;4900903;29;20531;-68
2021/04/29 13:51:30;;;;;;;16.43;15.17;;;12.60;99.90;;;;;;4900453;29;20996;-69
2021/04/29 13:53:57;;;;;;;15.70;14.40;;;12.50;99.90;;;;;;4900351;29;20967;-69
2021/04/29 13:56:23;;;;;;;15.90;14.70;;;12.40;99.90;;;;;;4900726;29;20219;-69
2021/04/29 13:58:49;;;;;;;15.90;14.60;;;12.30;99.90;;;;;;4900308;29;20674;-69
2021/04/29 14:01:17;;;;;;;17.20;15.70;;;12.30;99.90;;;;;;4900139;29;20503;-69
2021/04/29 14:03:43;;;;;;;18.27;16.63;;;12.10;99.90;;;;;;4900459;29;20463;-69
2021/04/29 14:06:09;;;;;;;18.15;16.45;;;12.00;99.90;;;;;;4900474;29;20479;-70
2021/04/29 14:08:36;;;;;;;17.30;15.80;;;12.00;99.90;;;;;;4900379;29;20223;-71
2021/04/29 14:11:03;;;;;;;17.77;16.00;;;12.00;99.90;;;;;;4900395;29;20231;-70
2021/04/29 14:13:30;;;;;;;17.45;15.63;;;12.20;99.90;;;;;;4899712;29;20684;-72
2021/04/29 14:15:58;;;;;;;18.55;16.80;;;12.40;99.90;;;;;;4900071;29;20274;-72
2021/04/29 14:18:24;;;;;;;18.15;16.63;;;12.70;99.90;;;;;;4900505;29;20309;-72
2021/04/29 14:20:51;;;;;;;16.60;15.30;;;12.90;99.90;;;;;;4900180;29;20612;-72
2021/04/29 14:23:17;;;;;;;16.87;15.37;;;12.90;99.90;;;;;;4899726;29;20490;-72
2021/04/29 14:25:44;;;;;;;17.05;15.63;;;12.80;99.90;;;;;;4900206;29;20471;-72
2021/04/29 14:28:10;;;;;;;16.80;15.40;;;12.80;99.90;;;;;;4899556;29;20215;-72
2021/04/29 14:30:36;;;;;;;17.88;16.25;;;12.70;99.90;;;;;;4899413;29;20510;-72
2021/04/29 14:33:03;;;;;;;17.67;16.08;;;12.60;99.90;;;;;;4899587;29;20243;-71
2021/04/29 14:35:29;;;;;;;18.67;16.95;;;12.40;99.90;;;;;;4899520;29;20668;-71
2021/04/29 14:37:56;;;;;;;18.50;16.80;;;12.30;99.90;;;;;;4899586;29;20581;-72
2021/04/29 14:40:22;;;;;;;18.55;16.85;;;12.40;99.90;;;;;;4899462;29;20672;-72
2021/04/29 14:42:49;;;;;;;17.25;15.65;;;12.50;99.90;;;;;;4899589;29;20529;-72
2021/04/29 14:45:18;;;;;;;16.98;15.48;;;12.70;99.90;;;;;;4898471;29;20262;-71
2021/04/29 14:47:44;;;;;;;18.00;16.30;;;12.60;99.90;;;;;;4899494;29;20218;-71
2021/04/29 14:50:11;;;;;;;18.13;16.33;;;12.70;99.90;;;;;;4898752;29;20214;-72
2021/04/29 14:52:38;;;;;;;17.20;15.60;;;12.70;99.90;;;;;;4898738;29;20987;-72
2021/04/29 14:55:05;;;;;;;16.67;15.17;;;12.80;99.90;;;;;;4898898;29;20908;-72
2021/04/29 14:57:31;;;;;;;16.08;14.75;;;13.00;99.90;;;;;;4899289;29;20471;-71
2021/04/29 14:59:59;;;;;;;16.58;15.10;;;12.90;99.90;;;;;;4898519;29;20694;-73
2021/04/29 15:02:26;;;;;;;17.05;15.50;;;12.70;99.90;;;;;;4899366;29;20727;-71
2021/04/29 15:04:52;;;;;;;15.38;14.07;;;12.70;99.90;;;;;;4898968;29;20206;-73
2021/04/29 15:07:20;;;;;;;14.10;13.00;;;12.80;99.90;;;;;;4899118;29;20676;-73
2021/04/29 15:09:46;;;;;;;14.73;13.43;;;12.70;99.90;;;;;;4899363;29;20576;-73
2021/04/29 15:12:13;;;;;;;14.85;13.65;;;12.70;99.90;;;;;;4899033;29;20290;-73
2021/04/29 15:14:39;;;;;;;14.32;13.02;;;12.60;99.90;;;;;;4898108;29;20238;-73
2021/04/29 15:17:06;;;;;;;14.75;13.52;;;12.60;99.90;;;;;;4899279;29;20215;-72
2021/04/29 15:19:32;;;;;;;13.38;12.27;;;12.50;99.90;;;;;;4899358;29;20219;-71
2021/04/29 15:21:58;;;;;;;15.30;14.10;;;12.50;99.90;;;;;;4898945;29;20239;-69
2021/04/29 15:24:25;;;;;;;14.65;13.45;;;12.40;99.90;;;;;;4898857;29;20348;-70
2021/04/29 15:26:51;;;;;;;14.80;13.63;;;12.40;99.90;;;;;;4898718;29;20211;-72
2021/04/29 15:29:18;;;;;;;15.15;13.80;;;12.50;99.90;;;;;;4898650;29;20215;-72
2021/04/29 15:31:44;;;;;;;14.70;13.40;;;12.50;99.90;;;;;;4898565;29;20720;-72
2021/04/29 15:34:11;;;;;;;14.68;13.40;;;12.50;99.90;;;;;;4898502;29;20695;-72
2021/04/29 15:36:37;;;;;;;15.23;13.93;;;12.50;99.90;;;;;;4898880;29;20211;-72
2021/04/29 15:39:05;;;;;;;14.35;13.10;;;12.50;99.90;;;;;;4899453;29;20211;-72
2021/04/29 15:41:31;;;;;;;13.50;12.40;;;12.50;99.90;;;;;;4898771;29;20639;-73
2021/04/29 15:43:58;;;;;;;14.00;12.77;;;12.50;99.90;;;;;;4898420;29;20207;-72
2021/04/29 15:46:24;;;;;;;13.57;12.48;;;12.40;99.90;;;;;;4898047;29;20679;-72
2021/04/29 15:48:50;;;;;;;15.20;13.68;;;12.30;99.90;;;;;;4898588;29;20214;-72
2021/04/29 15:51:17;;;;;;;15.02;13.68;;;12.20;99.90;;;;;;4898792;29;20579;-72
2021/04/29 15:53:44;;;;;;;16.30;14.77;;;12.10;99.90;;;;;;4898844;29;20234;-72
2021/04/29 15:56:11;;;;;;;14.77;13.48;;;12.00;99.90;;;;;;4898990;29;20287;-72
2021/04/29 15:58:37;;;;;;;23.45;16.80;;;11.80;99.90;;;;;;4898381;29;20644;-72
2021/04/29 16:01:04;;;;;;;17.23;15.57;;;11.80;99.90;;;;;;4898339;29;20246;-72
2021/04/29 16:03:30;;;;;;;16.85;15.25;;;11.70;99.90;;;;;;4898892;29;20373;-71
2021/04/29 16:05:57;;;;;;;19.13;16.25;;;11.60;99.90;;;;;;4899282;29;20256;-70
2021/04/29 16:08:24;;;;;;;19.15;17.25;;;11.50;99.90;;;;;;4900508;29;20199;-71
2021/04/29 16:10:51;;;;;;;19.05;17.27;;;11.50;99.90;;;;;;4899056;29;20235;-71
2021/04/29 16:13:17;;;;;;;20.42;18.23;;;11.50;99.90;;;;;;4897774;29;20219;-72
2021/04/29 16:15:43;;;;;;;20.08;17.98;;;11.60;99.90;;;;;;4898119;29;20227;-72
2021/04/29 16:18:09;;;;;;;21.08;19.02;;;11.50;99.90;;;;;;4897987;29;20310;-72
2021/04/29 16:20:36;;;;;;;22.55;20.13;;;11.60;99.90;;;;;;4898258;29;20601;-72
2021/04/29 16:23:02;;;;;;;22.73;20.27;;;11.50;99.90;;;;;;4898031;29;20207;-73
2021/04/29 16:25:29;;;;;;;22.10;19.80;;;11.50;99.90;;;;;;4897860;29;20212;-72
2021/04/29 16:27:55;;;;;;;22.25;19.95;;;11.50;99.90;;;;;;4897972;29;20207;-72
2021/04/29 16:30:23;;;;;;;21.77;19.52;;;11.50;99.90;;;;;;4897058;29;20682;-71
2021/04/29 16:32:50;;;;;;;21.60;19.27;;;11.50;99.90;;;;;;4897952;29;20691;-72
2021/04/29 16:35:17;;;;;;;22.15;19.48;;;11.50;99.90;;;;;;4897542;29;20757;-71